createdAt,value
2018-02-18T00:00:46.149Z,102252.22
2018-02-18T00:03:11.994Z,102257.42
2018-02-18T00:05:37.944Z,102257.34
2018-02-18T00:08:03.794Z,102257.16
2018-02-18T00:10:29.652Z,102267.29
2018-02-18T00:12:55.682Z,102264.67
2018-02-18T00:15:21.573Z,102261.05
2018-02-18T00:17:47.456Z,102264.59
2018-02-18T00:20:13.352Z,102274.07
2018-02-18T00:22:39.202Z,102275.78
2018-02-18T00:25:05.160Z,102289.16
2018-02-18T00:27:31.057Z,102289.28
2018-02-18T00:29:56.956Z,102289.39
2018-02-18T00:32:22.811Z,102291.16
2018-02-18T00:34:48.699Z,102289.72
2018-02-18T00:37:14.677Z,102292.20
2018-02-18T00:39:40.544Z,102298.15
2018-02-18T00:42:06.811Z,102299.86
2018-02-18T00:44:32.675Z,102297.92
2018-02-18T00:46:58.651Z,102296.58
2018-02-18T00:49:24.648Z,102304.98
2018-02-18T00:51:50.502Z,102299.61
2018-02-18T00:54:16.391Z,102310.06
2018-02-18T00:56:42.291Z,102310.56
2018-02-18T00:59:08.129Z,102306.49
2018-02-18T01:01:34.104Z,102303.84
2018-02-18T01:03:59.976Z,102308.13
2018-02-18T01:06:25.883Z,102310.66
2018-02-18T01:08:51.728Z,102315.22
2018-02-18T01:11:17.634Z,102318.59
2018-02-18T01:13:43.603Z,102321.16
2018-02-18T01:16:09.505Z,102317.45
2018-02-18T01:18:35.464Z,102320.00
2018-02-18T01:21:01.322Z,102319.55
2018-02-18T01:23:27.168Z,102323.12
2018-02-18T01:25:53.192Z,102320.41
2018-02-18T01:28:19.066Z,102315.45
2018-02-18T01:30:44.961Z,102316.22
2018-02-18T01:33:10.921Z,102321.73
2018-02-18T01:35:36.815Z,102322.80
2018-02-18T01:38:02.826Z,102325.42
2018-02-18T01:40:28.725Z,102322.19
2018-02-18T01:42:54.670Z,102323.03
2018-02-18T01:45:20.515Z,102321.91
2018-02-18T01:47:46.405Z,102325.23
2018-02-18T01:50:24.752Z,102324.90
2018-02-18T01:52:50.749Z,102331.30
2018-02-18T01:55:16.648Z,102330.80
2018-02-18T01:57:42.501Z,102331.52
2018-02-18T02:00:08.393Z,102330.36
2018-02-18T02:02:34.400Z,102334.70
2018-02-18T02:05:00.353Z,102336.83
2018-02-18T02:07:27.313Z,102339.89
2018-02-18T02:09:53.220Z,102341.13
2018-02-18T02:12:19.078Z,102336.27
2018-02-18T02:14:45.392Z,102337.03
2018-02-18T02:17:11.265Z,102342.88
2018-02-18T02:19:37.171Z,102335.55
2018-02-18T02:22:03.061Z,102342.37
2018-02-18T02:24:28.926Z,102351.67
2018-02-18T02:26:54.888Z,102350.48
2018-02-18T02:29:20.804Z,102351.61
2018-02-18T02:31:46.706Z,102351.02
2018-02-18T02:34:12.564Z,102359.08
2018-02-18T02:36:38.458Z,102357.50
2018-02-18T02:39:04.536Z,102358.51
2018-02-18T02:41:30.389Z,102360.16
2018-02-18T02:43:56.326Z,102362.23
2018-02-18T02:46:22.174Z,102359.56
2018-02-18T02:48:48.046Z,102358.74
2018-02-18T02:51:14.065Z,102363.89
2018-02-18T02:53:39.920Z,102357.98
2018-02-18T02:56:05.818Z,102363.02
2018-02-18T02:58:31.704Z,102357.20
2018-02-18T03:00:57.635Z,102357.61
2018-02-18T03:03:23.616Z,102361.80
2018-02-18T03:05:49.500Z,102364.89
2018-02-18T03:08:15.399Z,102366.70
2018-02-18T03:10:41.249Z,102372.24
2018-02-18T03:13:07.138Z,102368.16
2018-02-18T03:15:33.122Z,102364.95
2018-02-18T03:17:58.958Z,102370.81
2018-02-18T03:20:24.930Z,102375.84
2018-02-18T03:22:50.820Z,102374.20
2018-02-18T03:25:16.704Z,102370.70
2018-02-18T03:27:42.729Z,102370.98
2018-02-18T03:30:08.589Z,102367.91
2018-02-18T03:32:34.490Z,102371.67
2018-02-18T03:35:00.394Z,102362.52
2018-02-18T03:37:26.238Z,102364.81
2018-02-18T03:39:52.211Z,102358.67
2018-02-18T03:42:18.098Z,102359.78
2018-02-18T03:44:44.002Z,102360.12
2018-02-18T03:47:09.840Z,102354.73
2018-02-18T03:49:36.141Z,102354.20
2018-02-18T03:52:02.122Z,102357.02
2018-02-18T03:54:27.969Z,102355.09
2018-02-18T03:56:54.064Z,102367.22
2018-02-18T03:59:19.912Z,102357.15
2018-02-18T04:01:45.768Z,102365.16
2018-02-18T04:04:11.784Z,102366.62
2018-02-18T04:06:37.633Z,102370.86
2018-02-18T04:09:03.558Z,102361.89
2018-02-18T04:11:29.522Z,102362.78
2018-02-18T04:13:55.368Z,102362.17
2018-02-18T04:16:21.328Z,102364.81
2018-02-18T04:18:47.224Z,102365.57
2018-02-18T04:21:13.141Z,102378.52
2018-02-18T04:23:38.986Z,102373.89
2018-02-18T04:26:04.897Z,102378.42
2018-02-18T04:28:30.855Z,102370.70
2018-02-18T04:30:56.702Z,102377.31
2018-02-18T04:33:22.653Z,102378.71
2018-02-18T04:35:48.488Z,102382.31
2018-02-18T04:38:14.328Z,102386.49
2018-02-18T04:40:40.358Z,102381.47
2018-02-18T04:43:06.301Z,102378.58
2018-02-18T04:45:32.213Z,102384.21
2018-02-18T04:47:58.124Z,102382.25
2018-02-18T04:50:23.978Z,102379.49
2018-02-18T04:52:49.937Z,102386.55
2018-02-18T04:55:15.829Z,102387.16
2018-02-18T04:57:41.736Z,102384.75
2018-02-18T05:00:07.579Z,102392.13
2018-02-18T05:02:33.513Z,102400.70
2018-02-18T05:04:59.497Z,102405.14
2018-02-18T05:07:25.328Z,102406.50
2018-02-18T05:09:51.262Z,102403.63
2018-02-18T05:12:17.116Z,102412.38
2018-02-18T05:14:42.944Z,102416.78
2018-02-18T05:17:08.970Z,102412.56
2018-02-18T05:19:34.835Z,102423.64
2018-02-18T05:22:00.813Z,102433.50
2018-02-18T05:24:27.091Z,102429.55
2018-02-18T05:26:52.944Z,102430.34
2018-02-18T05:29:18.921Z,102434.30
2018-02-18T05:31:44.829Z,102435.05
2018-02-18T05:34:10.736Z,102436.23
2018-02-18T05:36:36.590Z,102434.70
2018-02-18T05:39:02.550Z,102436.82
2018-02-18T05:41:28.566Z,102435.31
2018-02-18T05:43:54.536Z,102442.05
2018-02-18T05:46:20.477Z,102451.50
2018-02-18T05:48:46.323Z,102454.98
2018-02-18T05:51:12.183Z,102460.00
2018-02-18T05:53:39.056Z,102465.64
2018-02-18T05:56:05.011Z,102464.69
2018-02-18T05:58:30.932Z,102459.31
2018-02-18T06:00:57.122Z,102464.36
2018-02-18T06:03:22.990Z,102467.30
2018-02-18T06:05:48.956Z,102461.67
2018-02-18T06:08:14.840Z,102466.38
2018-02-18T06:10:40.770Z,102465.56
2018-02-18T06:13:06.700Z,102468.43
2018-02-18T06:15:32.586Z,102477.07
2018-02-18T06:17:58.529Z,102477.04
2018-02-18T06:20:24.376Z,102479.45
2018-02-18T06:22:50.270Z,102483.65
2018-02-18T06:25:16.262Z,102485.98
2018-02-18T06:27:43.224Z,102480.59
2018-02-18T06:30:09.360Z,102480.72
2018-02-18T06:32:35.386Z,102480.34
2018-02-18T06:35:02.976Z,102481.33
2018-02-18T06:37:28.892Z,102487.92
2018-02-18T06:39:54.737Z,102488.06
2018-02-18T06:42:20.743Z,102498.71
2018-02-18T06:44:46.756Z,102497.11
2018-02-18T06:47:12.626Z,102495.94
2018-02-18T06:49:38.542Z,102493.34
2018-02-18T06:52:04.635Z,102492.30
2018-02-18T06:54:30.618Z,102502.20
2018-02-18T06:56:56.526Z,102502.09
2018-02-18T06:59:22.441Z,102504.47
2018-02-18T07:01:48.296Z,102508.09
2018-02-18T07:04:14.193Z,102510.45
2018-02-18T07:06:40.096Z,102515.14
2018-02-18T07:09:05.967Z,102518.16
2018-02-18T07:11:31.906Z,102512.56
2018-02-18T07:13:57.833Z,102511.17
2018-02-18T07:16:23.720Z,102512.41
2018-02-18T07:18:49.612Z,102512.72
2018-02-18T07:21:18.088Z,102508.58
2018-02-18T07:23:44.336Z,102508.37
2018-02-18T07:26:10.202Z,102507.58
2018-02-18T07:28:36.099Z,102511.95
2018-02-18T07:31:01.958Z,102513.95
2018-02-18T07:33:27.810Z,102507.14
2018-02-18T07:35:53.836Z,102503.19
2018-02-18T07:38:19.698Z,102507.97
2018-02-18T07:40:45.781Z,102506.35
2018-02-18T07:43:11.694Z,102509.02
2018-02-18T07:45:37.616Z,102506.84
2018-02-18T07:48:03.603Z,102511.81
2018-02-18T07:50:29.492Z,102506.52
2018-02-18T07:52:55.352Z,102508.37
2018-02-18T07:55:21.230Z,102511.95
2018-02-18T07:57:47.546Z,102505.58
2018-02-18T08:00:13.496Z,102512.64
2018-02-18T08:02:39.347Z,102507.73
2018-02-18T08:05:05.237Z,102513.05
2018-02-18T08:07:31.136Z,102520.55
2018-02-18T08:09:57.005Z,102513.69
2018-02-18T08:12:23.030Z,102511.70
2018-02-18T08:14:48.883Z,102521.03
2018-02-18T08:17:14.732Z,102514.42
2018-02-18T08:19:40.690Z,102523.61
2018-02-18T08:22:06.534Z,102522.48
2018-02-18T08:24:32.546Z,102522.56
2018-02-18T08:26:58.463Z,102526.62
2018-02-18T08:29:24.330Z,102518.78
2018-02-18T08:31:50.175Z,102527.39
2018-02-18T08:34:16.060Z,102516.09
2018-02-18T08:36:42.113Z,102522.61
2018-02-18T08:39:07.980Z,102521.02
2018-02-18T08:41:33.876Z,102516.87
2018-02-18T08:43:59.754Z,102521.89
2018-02-18T08:46:25.626Z,102514.56
2018-02-18T08:48:51.602Z,102514.93
2018-02-18T08:51:17.468Z,102513.34
2018-02-18T08:53:43.313Z,102511.74
2018-02-18T08:56:09.254Z,102512.07
2018-02-18T08:58:35.102Z,102514.09
2018-02-18T09:01:01.114Z,102512.47
2018-02-18T09:03:27.014Z,102514.02
2018-02-18T09:05:52.864Z,102517.59
2018-02-18T09:08:18.760Z,102516.16
2018-02-18T09:10:44.980Z,102520.86
2018-02-18T09:13:10.976Z,102514.73
2018-02-18T09:15:36.818Z,102525.92
2018-02-18T09:18:02.701Z,102529.38
2018-02-18T09:20:28.540Z,102530.12
2018-02-18T09:22:54.376Z,102525.06
2018-02-18T09:25:20.384Z,102515.09
2018-02-18T09:27:46.238Z,102524.86
2018-02-18T09:30:12.110Z,102532.32
2018-02-18T09:32:38.291Z,102532.65
2018-02-18T09:35:04.158Z,102529.39
2018-02-18T09:37:30.100Z,102534.77
2018-02-18T09:39:56.006Z,102538.80
2018-02-18T09:42:21.856Z,102534.25
2018-02-18T09:44:47.684Z,102528.27
2018-02-18T09:47:13.680Z,102534.13
2018-02-18T09:49:39.653Z,102537.20
2018-02-18T09:52:05.510Z,102533.88
2018-02-18T09:54:31.476Z,102538.36
2018-02-18T09:56:57.343Z,102535.54
2018-02-18T09:59:23.194Z,102534.34
2018-02-18T10:01:49.167Z,102538.84
2018-02-18T10:04:15.000Z,102534.09
2018-02-18T10:06:40.854Z,102538.20
2018-02-18T10:09:06.775Z,102537.20
2018-02-18T10:11:32.608Z,102538.70
2018-02-18T10:16:39.700Z,102538.73
2018-02-18T10:19:05.529Z,102545.06
2018-02-18T10:21:31.356Z,102538.09
2018-02-18T10:23:57.297Z,102537.65
2018-02-18T10:26:23.148Z,102538.94
2018-02-18T10:28:49.085Z,102548.19
2018-02-18T10:31:15.366Z,102551.75
2018-02-18T10:33:41.208Z,102545.53
2018-02-18T10:36:07.066Z,102543.34
2018-02-18T10:38:32.972Z,102542.98
2018-02-18T10:40:58.990Z,102541.91
2018-02-18T10:43:24.831Z,102540.72
2018-02-18T10:45:50.734Z,102540.75
2018-02-18T10:48:16.586Z,102546.23
2018-02-18T10:50:42.470Z,102549.92
2018-02-18T10:53:08.851Z,102552.52
2018-02-18T10:55:34.694Z,102551.33
2018-02-18T10:58:00.536Z,102553.99
2018-02-18T11:00:26.412Z,102550.70
2018-02-18T11:02:52.248Z,102554.63
2018-02-18T11:05:18.212Z,102549.42
2018-02-18T11:07:44.144Z,102549.30
2018-02-18T11:10:09.993Z,102543.89
2018-02-18T11:12:35.841Z,102540.05
2018-02-18T11:15:01.727Z,102532.30
2018-02-18T11:17:27.662Z,102537.48
2018-02-18T11:19:53.524Z,102537.63
2018-02-18T11:22:19.507Z,102534.73
2018-02-18T11:24:45.352Z,102540.00
2018-02-18T11:27:11.198Z,102528.88
2018-02-18T11:29:37.174Z,102532.61
2018-02-18T11:32:03.017Z,102529.45
2018-02-18T11:34:28.874Z,102524.38
2018-02-18T11:36:55.111Z,102530.06
2018-02-18T11:39:20.955Z,102519.88
2018-02-18T11:41:46.890Z,102519.42
2018-02-18T11:44:12.781Z,102527.71
2018-02-18T11:46:38.708Z,102529.48
2018-02-18T11:49:04.541Z,102533.92
2018-02-18T11:51:30.468Z,102531.93
2018-02-18T11:53:56.429Z,102536.03
2018-02-18T11:56:22.290Z,102535.55
2018-02-18T11:58:48.170Z,102532.77
2018-02-18T12:01:14.011Z,102528.39
2018-02-18T12:03:39.890Z,102530.38
2018-02-18T12:06:05.902Z,102533.53
2018-02-18T12:08:31.750Z,102532.34
2018-02-18T12:10:57.580Z,102527.59
2018-02-18T12:13:23.465Z,102523.64
2018-02-18T12:15:49.302Z,102531.39
2018-02-18T12:18:15.228Z,102529.53
2018-02-18T12:20:41.115Z,102526.81
2018-02-18T12:23:07.482Z,102527.39
2018-02-18T12:25:34.129Z,102515.95
2018-02-18T12:28:07.118Z,102520.63
2018-02-18T12:30:33.013Z,102517.02
2018-02-18T12:33:00.097Z,102514.03
2018-02-18T12:35:25.992Z,102517.58
2018-02-18T12:37:51.834Z,102507.67
2018-02-18T12:40:17.706Z,102507.34
2018-02-18T12:42:43.672Z,102509.53
2018-02-18T12:45:09.522Z,102492.41
2018-02-18T12:47:35.360Z,102499.19
2018-02-18T12:50:01.253Z,102500.41
2018-02-18T12:52:27.102Z,102490.13
2018-02-18T12:54:53.038Z,102494.09
2018-02-18T12:57:18.930Z,102491.48
2018-02-18T12:59:44.780Z,102499.05
2018-02-18T13:02:10.676Z,102490.65
2018-02-18T13:04:36.563Z,102489.36
2018-02-18T13:07:02.536Z,102489.26
2018-02-18T13:09:28.384Z,102491.47
2018-02-18T13:11:54.349Z,102487.27
2018-02-18T13:14:20.206Z,102492.39
2018-02-18T13:16:46.048Z,102491.48
2018-02-18T13:19:12.025Z,102487.26
2018-02-18T13:21:37.882Z,102479.54
2018-02-18T13:24:03.730Z,102483.87
2018-02-18T13:26:29.608Z,102475.05
2018-02-18T13:28:55.454Z,102477.59
2018-02-18T13:31:21.410Z,102471.67
2018-02-18T13:33:47.302Z,102478.72
2018-02-18T13:36:13.166Z,102477.03
2018-02-18T13:38:39.021Z,102470.87
2018-02-18T13:41:04.900Z,102474.25
2018-02-18T13:43:30.858Z,102476.80
2018-02-18T13:45:56.710Z,102475.33
2018-02-18T13:48:22.591Z,102472.89
2018-02-18T13:50:48.441Z,102471.64
2018-02-18T13:53:14.276Z,102463.98
2018-02-18T13:55:40.257Z,102463.84
2018-02-18T13:58:06.104Z,102461.91
2018-02-18T14:00:31.936Z,102447.32
2018-02-18T14:02:57.834Z,102448.79
2018-02-18T14:05:23.686Z,102457.19
2018-02-18T14:07:49.620Z,102455.88
2018-02-18T14:10:15.501Z,102445.30
2018-02-18T14:12:41.364Z,102448.06
2018-02-18T14:15:07.204Z,102451.22
2018-02-18T14:17:33.093Z,102445.62
2018-02-18T14:19:59.048Z,102448.84
2018-02-18T14:22:24.914Z,102443.50
2018-02-18T14:24:50.794Z,102452.99
2018-02-18T14:27:16.639Z,102445.33
2018-02-18T14:29:42.483Z,102449.86
2018-02-18T14:32:08.480Z,102446.75
2018-02-18T14:34:34.328Z,102439.56
2018-02-18T14:37:00.242Z,102441.16
2018-02-18T14:39:26.130Z,102438.39
2018-02-18T14:42:04.204Z,102431.45
2018-02-18T14:47:44.292Z,102422.13
2018-02-18T14:50:22.527Z,102429.83
2018-02-18T14:53:00.791Z,102425.34
2018-02-18T14:55:39.102Z,102426.64
2018-02-18T14:58:04.952Z,102421.61
2018-02-18T15:00:30.779Z,102428.61
2018-02-18T15:02:56.661Z,102421.86
2018-02-18T15:05:22.514Z,102423.77
2018-02-18T15:07:48.454Z,102424.56
2018-02-18T15:10:14.378Z,102424.90
2018-02-18T15:12:40.228Z,102425.11
2018-02-18T15:15:06.074Z,102425.66
2018-02-18T15:17:31.969Z,102433.84
2018-02-18T15:19:57.930Z,102437.41
2018-02-18T15:22:23.778Z,102427.31
2018-02-18T15:24:49.672Z,102429.27
2018-02-18T15:27:15.513Z,102422.84
2018-02-18T15:29:41.348Z,102427.17
2018-02-18T15:32:07.351Z,102423.53
2018-02-18T15:34:33.198Z,102422.42
2018-02-18T15:36:59.046Z,102426.28
2018-02-18T15:39:25.195Z,102421.53
2018-02-18T15:41:51.050Z,102419.28
2018-02-18T15:44:17.082Z,102417.78
2018-02-18T15:46:43.066Z,102420.45
2018-02-18T15:49:09.210Z,102415.88
2018-02-18T15:51:35.070Z,102423.48
2018-02-18T15:54:00.966Z,102419.83
2018-02-18T15:56:26.900Z,102417.45
2018-02-18T15:58:52.732Z,102412.80
2018-02-18T16:01:18.618Z,102419.10
2018-02-18T16:03:44.460Z,102424.44
2018-02-18T16:06:10.304Z,102418.82
2018-02-18T16:08:36.268Z,102419.83
2018-02-18T16:11:02.556Z,102424.77
2018-02-18T16:13:28.446Z,102428.59
2018-02-18T16:15:54.335Z,102420.88
2018-02-18T16:18:20.241Z,102414.09
2018-02-18T16:20:46.185Z,102412.77
2018-02-18T16:23:12.124Z,102413.16
2018-02-18T16:25:37.969Z,102413.35
2018-02-18T16:28:03.804Z,102410.34
2018-02-18T16:30:30.159Z,102408.19
2018-02-18T16:32:56.136Z,102419.20
2018-02-18T16:35:21.984Z,102414.02
2018-02-18T16:37:47.886Z,102415.98
2018-02-18T16:40:13.728Z,102419.39
2018-02-18T16:42:39.568Z,102416.24
2018-02-18T16:45:05.610Z,102412.97
2018-02-18T16:47:31.486Z,102412.75
2018-02-18T16:49:57.326Z,102414.61
2018-02-18T16:52:23.250Z,102418.16
2018-02-18T16:54:49.098Z,102407.65
2018-02-18T16:57:15.057Z,102408.35
2018-02-18T16:59:40.940Z,102408.56
2018-02-18T17:02:06.776Z,102407.50
2018-02-18T17:04:32.997Z,102410.50
2018-02-18T17:06:59.249Z,102406.75
2018-02-18T17:09:25.208Z,102411.67
2018-02-18T17:11:51.044Z,102394.83
2018-02-18T17:14:16.931Z,102391.63
2018-02-18T17:16:42.778Z,102395.53
2018-02-18T17:19:08.638Z,102402.27
2018-02-18T17:21:34.630Z,102396.86
2018-02-18T17:24:00.479Z,102393.63
2018-02-18T17:26:26.604Z,102379.76
2018-02-18T17:28:52.501Z,102384.82
2018-02-18T17:31:18.386Z,102379.31
2018-02-18T17:33:44.308Z,102378.22
2018-02-18T17:36:10.365Z,102373.93
2018-02-18T17:38:36.367Z,102375.59
2018-02-18T17:41:02.238Z,102371.41
2018-02-18T17:43:28.117Z,102370.94
2018-02-18T17:45:54.078Z,102372.89
2018-02-18T17:48:19.969Z,102369.03
2018-02-18T17:50:46.156Z,102366.98
2018-02-18T17:53:12.019Z,102365.30
2018-02-18T17:55:38.345Z,102378.04
2018-02-18T17:58:05.658Z,102372.06
2018-02-18T18:00:31.643Z,102370.47
2018-02-18T18:02:57.489Z,102370.08
2018-02-18T18:05:23.461Z,102371.04
2018-02-18T18:07:49.310Z,102379.34
2018-02-18T18:10:15.199Z,102375.36
2018-02-18T18:12:41.150Z,102371.40
2018-02-18T18:15:07.068Z,102374.79
2018-02-18T18:17:32.904Z,102367.05
2018-02-18T18:19:58.795Z,102372.97
2018-02-18T18:22:24.642Z,102362.19
2018-02-18T18:24:50.548Z,102359.88
2018-02-18T18:27:16.862Z,102360.70
2018-02-18T18:29:42.719Z,102352.70
2018-02-18T18:32:08.660Z,102355.09
2018-02-18T18:34:34.548Z,102358.31
2018-02-18T18:37:00.444Z,102358.60
2018-02-18T18:39:26.373Z,102358.15
2018-02-18T18:41:52.252Z,102353.45
2018-02-18T18:44:18.093Z,102362.34
2018-02-18T18:46:43.932Z,102356.88
2018-02-18T18:49:09.875Z,102356.85
2018-02-18T18:51:35.817Z,102359.68
2018-02-18T18:54:01.658Z,102354.55
2018-02-18T18:56:27.536Z,102342.33
2018-02-18T18:58:53.368Z,102355.08
2018-02-18T19:01:19.269Z,102346.06
2018-02-18T19:03:45.246Z,102350.33
2018-02-18T19:06:11.086Z,102348.58
2018-02-18T19:08:36.916Z,102346.81
2018-02-18T19:11:02.791Z,102345.05
2018-02-18T19:13:28.697Z,102342.08
2018-02-18T19:15:54.639Z,102339.09
2018-02-18T19:18:20.575Z,102347.06
2018-02-18T19:20:46.423Z,102354.52
2018-02-18T19:23:12.264Z,102354.89
2018-02-18T19:25:38.212Z,102353.33
2018-02-18T19:28:04.141Z,102351.89
2018-02-18T19:30:30.060Z,102355.45
2018-02-18T19:32:55.948Z,102348.97
2018-02-18T19:35:21.795Z,102353.27
2018-02-18T19:37:47.700Z,102349.26
2018-02-18T19:40:13.680Z,102349.94
2018-02-18T19:42:39.515Z,102342.13
2018-02-18T19:45:05.458Z,102354.66
2018-02-18T19:47:31.663Z,102343.67
2018-02-18T19:49:57.863Z,102341.09
2018-02-18T19:52:24.119Z,102345.22
2018-02-18T19:54:50.136Z,102333.07
2018-02-18T19:57:16.514Z,102342.06
2018-02-18T19:59:42.395Z,102342.73
2018-02-18T20:02:08.790Z,102333.85
2018-02-18T20:04:35.310Z,102340.21
2018-02-18T20:07:01.528Z,102337.17
2018-02-18T20:09:27.452Z,102349.84
2018-02-18T20:11:53.376Z,102343.70
2018-02-18T20:14:19.268Z,102341.92
2018-02-18T20:16:45.265Z,102343.33
2018-02-18T20:19:11.313Z,102333.53
2018-02-18T20:21:37.188Z,102334.86
2018-02-18T20:24:03.565Z,102332.23
2018-02-18T20:26:29.502Z,102339.24
2018-02-18T20:28:55.436Z,102336.11
2018-02-18T20:31:21.921Z,102326.38
2018-02-18T20:33:47.896Z,102335.58
2018-02-18T20:36:13.746Z,102335.01
2018-02-18T20:38:39.724Z,102333.62
2018-02-18T20:41:05.662Z,102327.48
2018-02-18T20:43:31.907Z,102329.59
2018-02-18T20:45:57.853Z,102333.32
2018-02-18T20:48:23.708Z,102332.52
2018-02-18T20:50:50.097Z,102328.70
2018-02-18T20:53:16.114Z,102332.19
2018-02-18T20:55:42.359Z,102322.67
2018-02-18T20:58:08.341Z,102335.20
2018-02-18T21:00:34.461Z,102327.38
2018-02-18T21:03:00.368Z,102326.27
2018-02-18T21:05:26.306Z,102327.13
2018-02-18T21:07:52.237Z,102326.44
2018-02-18T21:10:18.113Z,102320.08
2018-02-18T21:12:44.159Z,102313.41
2018-02-18T21:15:10.121Z,102316.32
2018-02-18T21:17:43.025Z,102310.79
2018-02-18T21:20:08.889Z,102312.89
2018-02-18T21:22:34.816Z,102312.28
2018-02-18T21:25:01.003Z,102317.75
2018-02-18T21:27:26.924Z,102325.09
2018-02-18T21:29:52.884Z,102318.67
2018-02-18T21:32:18.788Z,102312.72
2018-02-18T21:34:44.642Z,102313.97
2018-02-18T21:37:10.940Z,102305.42
2018-02-18T21:39:36.851Z,102304.73
2018-02-18T21:42:02.790Z,102309.70
2018-02-18T21:44:28.681Z,102298.54
2018-02-18T21:46:54.528Z,102296.41
2018-02-18T21:49:20.368Z,102295.80
2018-02-18T21:51:46.342Z,102294.30
2018-02-18T21:54:12.325Z,102293.34
2018-02-18T21:56:38.237Z,102288.31
2018-02-18T21:59:04.225Z,102293.34
2018-02-18T22:01:30.082Z,102290.48
2018-02-18T22:03:56.068Z,102274.56
2018-02-18T22:06:21.981Z,102265.77
2018-02-18T22:08:47.823Z,102270.28
2018-02-18T22:11:13.681Z,102267.41
2018-02-18T22:13:39.570Z,102267.41
2018-02-18T22:16:05.494Z,102263.81
2018-02-18T22:18:31.334Z,102264.56
2018-02-18T22:20:57.209Z,102276.36
2018-02-18T22:23:23.061Z,102262.79
2018-02-18T22:25:48.909Z,102269.92
2018-02-18T22:28:14.788Z,102265.14
2018-02-18T22:30:40.622Z,102247.75
2018-02-18T22:33:06.465Z,102241.48
2018-02-18T22:35:32.440Z,102245.81
2018-02-18T22:37:58.278Z,102242.58
2018-02-18T22:40:24.127Z,102236.31
2018-02-18T22:42:50.004Z,102242.05
2018-02-18T22:45:15.843Z,102235.98
2018-02-18T22:47:41.682Z,102231.14
2018-02-18T22:50:07.578Z,102234.42
2018-02-18T22:52:33.420Z,102226.42
2018-02-18T22:54:59.314Z,102222.94
2018-02-18T22:57:25.211Z,102224.02
2018-02-18T22:59:51.153Z,102215.37
2018-02-18T23:02:16.992Z,102220.55
2018-02-18T23:04:42.888Z,102217.55
2018-02-18T23:07:08.739Z,102215.50
2018-02-18T23:09:34.580Z,102205.69
2018-02-18T23:12:00.481Z,102205.66
2018-02-18T23:14:26.325Z,102208.95
2018-02-18T23:16:52.186Z,102194.30
2018-02-18T23:19:18.105Z,102184.44
2018-02-18T23:21:43.940Z,102192.56
2018-02-18T23:24:09.787Z,102190.11
2018-02-18T23:26:35.668Z,102185.91
2018-02-18T23:29:01.507Z,102183.62
2018-02-18T23:31:27.346Z,102185.10
2018-02-18T23:33:53.247Z,102184.50
2018-02-18T23:36:19.098Z,102179.41
2018-02-18T23:38:44.931Z,102188.53
2018-02-18T23:41:10.948Z,102178.62
2018-02-18T23:43:36.806Z,102172.79
2018-02-18T23:46:02.653Z,102175.41
2018-02-18T23:48:28.616Z,102172.01
2018-02-18T23:50:54.470Z,102166.68
2018-02-18T23:53:20.309Z,102171.92
2018-02-18T23:55:46.244Z,102165.95
2018-02-18T23:58:12.082Z,102162.98
